sensor_id;sensor_type;location;lat;lon;timestamp;temperature;humidity
14783;DHT22;7483;50.498;12.138;2023-03-01T00:01:35;-0.10;99.90
14783;DHT22;7483;50.498;12.138;2023-03-01T00:04:03;-0.10;99.90
14783;DHT22;7483;50.498;12.138;2023-03-01T00:06:32;-0.10;99.90
14783;DHT22;7483;50.498;12.138;2023-03-01T00:09:00;-0.20;99.90
14783;DHT22;7483;50.498;12.138;2023-03-01T00:11:30;-0.30;99.90
14783;DHT22;7483;50.498;12.138;2023-03-01T00:14:01;-0.40;99.90
14783;DHT22;7483;50.498;12.138;2023-03-01T00:16:32;-0.40;99.90
14783;DHT22;7483;50.498;12.138;2023-03-01T00:19:02;-0.30;99.90
14783;DHT22;7483;50.498;12.138;2023-03-01T00:21:30;-0.30;99.90
14783;DHT22;7483;50.498;12.138;2023-03-01T00:24:00;-0.40;99.90
14783;DHT22;7483;50.498;12.138;2023-03-01T00:26:28;-0.50;99.90
14783;DHT22;7483;50.498;12.138;2023-03-01T00:28:57;-0.50;99.90
14783;DHT22;7483;50.498;12.138;2023-03-01T00:31:27;-0.50;99.90
14783;DHT22;7483;50.498;12.138;2023-03-01T00:33:59;-0.60;99.90
14783;DHT22;7483;50.498;12.138;2023-03-01T00:36:31;-0.60;99.90
14783;DHT22;7483;50.498;12.138;2023-03-01T00:39:03;-0.60;99.90
14783;DHT22;7483;50.498;12.138;2023-03-01T00:41:32;-0.80;99.90
14783;DHT22;7483;50.498;12.138;2023-03-01T00:44:01;-1.00;99.90
14783;DHT22;7483;50.498;12.138;2023-03-01T00:46:30;-1.00;99.90
14783;DHT22;7483;50.498;12.138;2023-03-01T00:48:58;-1.00;99.90
14783;DHT22;7483;50.498;12.138;2023-03-01T00:51:28;-0.90;99.90
14783;DHT22;7483;50.498;12.138;2023-03-01T00:53:59;-0.90;99.90
14783;DHT22;7483;50.498;12.138;2023-03-01T00:56:30;-0.90;99.90
14783;DHT22;7483;50.498;12.138;2023-03-01T00:58:59;-0.80;99.90
14783;DHT22;7483;50.498;12.138;2023-03-01T01:01:29;-0.80;99.90
14783;DHT22;7483;50.498;12.138;2023-03-01T01:04:00;-0.80;99.90
14783;DHT22;7483;50.498;12.138;2023-03-01T01:06:32;-0.80;99.90
14783;DHT22;7483;50.498;12.138;2023-03-01T01:09:04;-0.80;99.90
14783;DHT22;7483;50.498;12.138;2023-03-01T01:11:34;-0.80;99.90
14783;DHT22;7483;50.498;12.138;2023-03-01T01:14:04;-0.90;99.90
14783;DHT22;7483;50.498;12.138;2023-03-01T01:16:32;-1.00;99.90
14783;DHT22;7483;50.498;12.138;2023-03-01T01:19:00;-1.10;99.90
14783;DHT22;7483;50.498;12.138;2023-03-01T01:21:29;-1.40;99.90
14783;DHT22;7483;50.498;12.138;2023-03-01T01:23:57;-1.70;99.90
14783;DHT22;7483;50.498;12.138;2023-03-01T01:26:28;-1.90;99.90
14783;DHT22;7483;50.498;12.138;2023-03-01T01:28:59;-2.20;99.90
14783;DHT22;7483;50.498;12.138;2023-03-01T01:31:28;-2.20;99.90
14783;DHT22;7483;50.498;12.138;2023-03-01T01:33:58;-2.20;99.90
14783;DHT22;7483;50.498;12.138;2023-03-01T01:36:27;-2.30;99.90
14783;DHT22;7483;50.498;12.138;2023-03-01T01:38:56;-2.10;99.90
14783;DHT22;7483;50.498;12.138;2023-03-01T01:41:27;-2.10;99.90
14783;DHT22;7483;50.498;12.138;2023-03-01T01:44:18;-1.90;99.90
14783;DHT22;7483;50.498;12.138;2023-03-01T01:46:49;-1.80;99.90
14783;DHT22;7483;50.498;12.138;2023-03-01T01:49:27;-1.70;99.90
14783;DHT22;7483;50.498;12.138;2023-03-01T01:52:09;-1.70;99.90
14783;DHT22;7483;50.498;12.138;2023-03-01T01:54:43;-1.70;99.90
14783;DHT22;7483;50.498;12.138;2023-03-01T01:57:19;-1.70;99.90
14783;DHT22;7483;50.498;12.138;2023-03-01T01:59:52;-1.70;99.90
14783;DHT22;7483;50.498;12.138;2023-03-01T02:02:22;-1.80;99.90
14783;DHT22;7483;50.498;12.138;2023-03-01T02:04:54;-1.90;99.90
14783;DHT22;7483;50.498;12.138;2023-03-01T02:07:30;-2.00;99.90
14783;DHT22;7483;50.498;12.138;2023-03-01T02:09:58;-2.10;99.90
14783;DHT22;7483;50.498;12.138;2023-03-01T02:12:28;-2.10;99.90
14783;DHT22;7483;50.498;12.138;2023-03-01T02:14:57;-2.10;99.90
14783;DHT22;7483;50.498;12.138;2023-03-01T02:17:25;-2.00;99.90
14783;DHT22;7483;50.498;12.138;2023-03-01T02:20:06;-2.00;99.90
14783;DHT22;7483;50.498;12.138;2023-03-01T02:22:44;-1.90;99.90
14783;DHT22;7483;50.498;12.138;2023-03-01T02:25:27;-1.80;99.90
14783;DHT22;7483;50.498;12.138;2023-03-01T02:28:03;-1.90;99.90
14783;DHT22;7483;50.498;12.138;2023-03-01T02:30:37;-1.80;99.90
14783;DHT22;7483;50.498;12.138;2023-03-01T02:33:26;-1.80;99.90
14783;DHT22;7483;50.498;12.138;2023-03-01T02:35:54;-1.70;99.90
14783;DHT22;7483;50.498;12.138;2023-03-01T02:38:24;-1.60;99.90
14783;DHT22;7483;50.498;12.138;2023-03-01T02:40:52;-1.50;99.90
14783;DHT22;7483;50.498;12.138;2023-03-01T02:43:24;-1.50;99.90
14783;DHT22;7483;50.498;12.138;2023-03-01T02:46:05;-1.60;99.90
14783;DHT22;7483;50.498;12.138;2023-03-01T02:48:43;-1.70;99.90
14783;DHT22;7483;50.498;12.138;2023-03-01T02:51:26;-1.70;99.90
14783;DHT22;7483;50.498;12.138;2023-03-01T02:54:09;-1.90;99.90
14783;DHT22;7483;50.498;12.138;2023-03-01T02:56:44;-1.90;99.90
14783;DHT22;7483;50.498;12.138;2023-03-01T02:59:20;-1.90;99.90
14783;DHT22;7483;50.498;12.138;2023-03-01T03:01:51;-1.90;99.90
14783;DHT22;7483;50.498;12.138;2023-03-01T03:04:19;-2.00;99.90
14783;DHT22;7483;50.498;12.138;2023-03-01T03:06:50;-2.20;99.90
14783;DHT22;7483;50.498;12.138;2023-03-01T03:09:19;-2.40;99.90
14783;DHT22;7483;50.498;12.138;2023-03-01T03:11:47;-2.60;99.90
14783;DHT22;7483;50.498;12.138;2023-03-01T03:14:16;-2.50;99.90
14783;DHT22;7483;50.498;12.138;2023-03-01T03:16:49;-2.40;99.90
14783;DHT22;7483;50.498;12.138;2023-03-01T03:19:19;-2.40;99.90
14783;DHT22;7483;50.498;12.138;2023-03-01T03:21:47;-2.30;99.90
14783;DHT22;7483;50.498;12.138;2023-03-01T03:24:16;-2.30;99.90
14783;DHT22;7483;50.498;12.138;2023-03-01T03:26:44;-2.30;99.90
14783;DHT22;7483;50.498;12.138;2023-03-01T03:29:13;-2.30;99.90
14783;DHT22;7483;50.498;12.138;2023-03-01T03:31:41;-2.30;99.90
14783;DHT22;7483;50.498;12.138;2023-03-01T03:34:10;-2.30;99.90
14783;DHT22;7483;50.498;12.138;2023-03-01T03:36:44;-2.30;99.90
14783;DHT22;7483;50.498;12.138;2023-03-01T03:39:12;-2.40;99.90
14783;DHT22;7483;50.498;12.138;2023-03-01T03:41:40;-2.50;99.90
14783;DHT22;7483;50.498;12.138;2023-03-01T03:44:08;-2.50;99.90
14783;DHT22;7483;50.498;12.138;2023-03-01T03:46:36;-2.50;99.90
14783;DHT22;7483;50.498;12.138;2023-03-01T03:49:04;-2.70;99.90
14783;DHT22;7483;50.498;12.138;2023-03-01T03:51:33;-2.90;99.90
14783;DHT22;7483;50.498;12.138;2023-03-01T03:54:01;-3.00;99.90
14783;DHT22;7483;50.498;12.138;2023-03-01T03:56:29;-2.90;99.90
14783;DHT22;7483;50.498;12.138;2023-03-01T03:58:57;-2.90;99.90
14783;DHT22;7483;50.498;12.138;2023-03-01T04:01:25;-3.00;99.90
14783;DHT22;7483;50.498;12.138;2023-03-01T04:03:53;-3.00;99.90
14783;DHT22;7483;50.498;12.138;2023-03-01T04:06:22;-3.10;99.90
14783;DHT22;7483;50.498;12.138;2023-03-01T04:08:51;-3.20;99.90
14783;DHT22;7483;50.498;12.138;2023-03-01T04:11:26;-3.20;99.90
14783;DHT22;7483;50.498;12.138;2023-03-01T04:13:56;-3.20;99.90
14783;DHT22;7483;50.498;12.138;2023-03-01T04:16:26;-3.20;99.90
14783;DHT22;7483;50.498;12.138;2023-03-01T04:18:55;-3.20;99.90
14783;DHT22;7483;50.498;12.138;2023-03-01T04:21:26;-3.30;99.90
14783;DHT22;7483;50.498;12.138;2023-03-01T04:23:55;-3.40;99.90
14783;DHT22;7483;50.498;12.138;2023-03-01T04:26:23;-3.40;99.90
14783;DHT22;7483;50.498;12.138;2023-03-01T04:28:51;-3.40;99.90
14783;DHT22;7483;50.498;12.138;2023-03-01T04:31:19;-3.40;99.90
14783;DHT22;7483;50.498;12.138;2023-03-01T04:33:49;-3.20;99.90
14783;DHT22;7483;50.498;12.138;2023-03-01T04:36:20;-3.20;99.90
14783;DHT22;7483;50.498;12.138;2023-03-01T04:38:49;-3.10;99.90
14783;DHT22;7483;50.498;12.138;2023-03-01T04:41:21;-3.00;99.90
14783;DHT22;7483;50.498;12.138;2023-03-01T04:43:50;-2.90;99.90
14783;DHT22;7483;50.498;12.138;2023-03-01T04:46:20;-2.80;99.90
14783;DHT22;7483;50.498;12.138;2023-03-01T04:48:49;-2.70;99.90
14783;DHT22;7483;50.498;12.138;2023-03-01T04:51:17;-2.60;99.90
14783;DHT22;7483;50.498;12.138;2023-03-01T04:53:45;-2.80;99.90
14783;DHT22;7483;50.498;12.138;2023-03-01T04:56:14;-2.80;99.90
14783;DHT22;7483;50.498;12.138;2023-03-01T04:58:46;-3.00;99.90
14783;DHT22;7483;50.498;12.138;2023-03-01T05:01:16;-3.20;99.90
14783;DHT22;7483;50.498;12.138;2023-03-01T05:03:47;-3.40;99.90
14783;DHT22;7483;50.498;12.138;2023-03-01T05:06:18;-3.40;99.90
14783;DHT22;7483;50.498;12.138;2023-03-01T05:08:47;-3.50;99.90
14783;DHT22;7483;50.498;12.138;2023-03-01T05:11:15;-3.50;99.90
14783;DHT22;7483;50.498;12.138;2023-03-01T05:13:43;-3.50;99.90
14783;DHT22;7483;50.498;12.138;2023-03-01T05:16:12;-3.30;99.90
14783;DHT22;7483;50.498;12.138;2023-03-01T05:18:40;-3.30;99.90
14783;DHT22;7483;50.498;12.138;2023-03-01T05:21:11;-3.40;99.90
14783;DHT22;7483;50.498;12.138;2023-03-01T05:23:42;-3.40;99.90
14783;DHT22;7483;50.498;12.138;2023-03-01T05:26:10;-3.30;99.90
14783;DHT22;7483;50.498;12.138;2023-03-01T05:28:54;-3.20;99.90
14783;DHT22;7483;50.498;12.138;2023-03-01T05:31:26;-3.50;99.90
14783;DHT22;7483;50.498;12.138;2023-03-01T05:33:57;-3.50;99.90
14783;DHT22;7483;50.498;12.138;2023-03-01T05:36:25;-3.60;99.90
14783;DHT22;7483;50.498;12.138;2023-03-01T05:38:53;-3.70;99.90
14783;DHT22;7483;50.498;12.138;2023-03-01T05:41:22;-3.70;99.90
14783;DHT22;7483;50.498;12.138;2023-03-01T05:43:50;-3.80;99.90
14783;DHT22;7483;50.498;12.138;2023-03-01T05:46:18;-3.80;99.90
14783;DHT22;7483;50.498;12.138;2023-03-01T05:48:47;-3.70;99.90
14783;DHT22;7483;50.498;12.138;2023-03-01T05:51:15;-3.70;99.90
14783;DHT22;7483;50.498;12.138;2023-03-01T05:53:44;-3.70;99.90
14783;DHT22;7483;50.498;12.138;2023-03-01T05:56:12;-3.60;99.90
14783;DHT22;7483;50.498;12.138;2023-03-01T05:58:39;-3.50;99.90
14783;DHT22;7483;50.498;12.138;2023-03-01T06:01:11;-3.30;99.90
14783;DHT22;7483;50.498;12.138;2023-03-01T06:03:40;-3.20;99.90
14783;DHT22;7483;50.498;12.138;2023-03-01T06:06:09;-3.20;99.90
14783;DHT22;7483;50.498;12.138;2023-03-01T06:08:38;-3.20;99.90
14783;DHT22;7483;50.498;12.138;2023-03-01T06:11:06;-3.20;99.90
14783;DHT22;7483;50.498;12.138;2023-03-01T06:13:34;-3.40;99.90
14783;DHT22;7483;50.498;12.138;2023-03-01T06:16:04;-3.50;99.90
14783;DHT22;7483;50.498;12.138;2023-03-01T06:18:33;-3.50;99.90
14783;DHT22;7483;50.498;12.138;2023-03-01T06:21:01;-3.50;99.90
14783;DHT22;7483;50.498;12.138;2023-03-01T06:23:31;-3.60;99.90
14783;DHT22;7483;50.498;12.138;2023-03-01T06:25:59;-3.70;99.90
14783;DHT22;7483;50.498;12.138;2023-03-01T06:28:28;-3.70;99.90
14783;DHT22;7483;50.498;12.138;2023-03-01T06:30:56;-3.70;99.90
14783;DHT22;7483;50.498;12.138;2023-03-01T06:33:24;-3.70;99.90
14783;DHT22;7483;50.498;12.138;2023-03-01T06:35:54;-3.80;99.90
14783;DHT22;7483;50.498;12.138;2023-03-01T06:38:23;-3.80;99.90
14783;DHT22;7483;50.498;12.138;2023-03-01T06:40:53;-3.80;99.90
14783;DHT22;7483;50.498;12.138;2023-03-01T06:43:23;-3.70;99.90
14783;DHT22;7483;50.498;12.138;2023-03-01T06:45:51;-3.70;99.90
14783;DHT22;7483;50.498;12.138;2023-03-01T06:48:19;-3.80;99.90
14783;DHT22;7483;50.498;12.138;2023-03-01T06:50:47;-3.70;99.90
14783;DHT22;7483;50.498;12.138;2023-03-01T06:53:15;-3.70;99.90
14783;DHT22;7483;50.498;12.138;2023-03-01T06:55:43;-3.60;99.90
14783;DHT22;7483;50.498;12.138;2023-03-01T06:58:12;-3.70;99.90
14783;DHT22;7483;50.498;12.138;2023-03-01T07:00:40;-3.70;99.90
14783;DHT22;7483;50.498;12.138;2023-03-01T07:03:09;-3.60;99.90
14783;DHT22;7483;50.498;12.138;2023-03-01T07:05:37;-3.50;99.90
14783;DHT22;7483;50.498;12.138;2023-03-01T07:08:05;-3.40;99.90
14783;DHT22;7483;50.498;12.138;2023-03-01T07:10:33;-3.40;99.90
14783;DHT22;7483;50.498;12.138;2023-03-01T07:13:01;-3.50;99.90
14783;DHT22;7483;50.498;12.138;2023-03-01T07:15:31;-3.50;99.90
14783;DHT22;7483;50.498;12.138;2023-03-01T07:17:59;-3.50;99.90
14783;DHT22;7483;50.498;12.138;2023-03-01T07:20:27;-3.50;99.90
14783;DHT22;7483;50.498;12.138;2023-03-01T07:22:55;-3.40;99.90
14783;DHT22;7483;50.498;12.138;2023-03-01T07:25:25;-3.30;99.90
14783;DHT22;7483;50.498;12.138;2023-03-01T07:27:53;-3.30;99.90
14783;DHT22;7483;50.498;12.138;2023-03-01T07:30:22;-3.20;99.90
14783;DHT22;7483;50.498;12.138;2023-03-01T07:32:53;-3.20;99.90
14783;DHT22;7483;50.498;12.138;2023-03-01T07:35:22;-3.10;99.90
14783;DHT22;7483;50.498;12.138;2023-03-01T07:37:51;-3.10;99.90
14783;DHT22;7483;50.498;12.138;2023-03-01T07:40:19;-3.00;99.90
14783;DHT22;7483;50.498;12.138;2023-03-01T07:42:47;-2.90;99.90
14783;DHT22;7483;50.498;12.138;2023-03-01T07:45:15;-2.70;99.90
14783;DHT22;7483;50.498;12.138;2023-03-01T07:47:43;-2.60;99.90
14783;DHT22;7483;50.498;12.138;2023-03-01T07:50:13;-2.50;99.90
14783;DHT22;7483;50.498;12.138;2023-03-01T07:52:41;-2.40;99.90
14783;DHT22;7483;50.498;12.138;2023-03-01T07:55:12;-2.40;99.90
14783;DHT22;7483;50.498;12.138;2023-03-01T07:57:40;-2.40;99.90
14783;DHT22;7483;50.498;12.138;2023-03-01T08:00:10;-2.70;99.90
14783;DHT22;7483;50.498;12.138;2023-03-01T08:02:39;-2.70;99.90
14783;DHT22;7483;50.498;12.138;2023-03-01T08:05:08;-2.60;99.90
14783;DHT22;7483;50.498;12.138;2023-03-01T08:07:38;-2.60;99.90
14783;DHT22;7483;50.498;12.138;2023-03-01T08:10:06;-2.50;99.90
14783;DHT22;7483;50.498;12.138;2023-03-01T08:12:35;-2.40;99.90
14783;DHT22;7483;50.498;12.138;2023-03-01T08:15:04;-2.30;99.90
14783;DHT22;7483;50.498;12.138;2023-03-01T08:17:32;-2.20;99.90
14783;DHT22;7483;50.498;12.138;2023-03-01T08:20:00;-2.00;99.90
14783;DHT22;7483;50.498;12.138;2023-03-01T08:22:29;-1.80;99.90
14783;DHT22;7483;50.498;12.138;2023-03-01T08:24:59;-1.60;99.90
14783;DHT22;7483;50.498;12.138;2023-03-01T08:27:27;-1.50;99.90
14783;DHT22;7483;50.498;12.138;2023-03-01T08:29:55;-1.40;99.90
14783;DHT22;7483;50.498;12.138;2023-03-01T08:32:23;-1.30;99.90
14783;DHT22;7483;50.498;12.138;2023-03-01T08:34:51;-1.20;99.90
14783;DHT22;7483;50.498;12.138;2023-03-01T08:37:19;-1.10;99.90
14783;DHT22;7483;50.498;12.138;2023-03-01T08:39:46;-1.10;99.90
14783;DHT22;7483;50.498;12.138;2023-03-01T08:42:16;-1.00;99.90
14783;DHT22;7483;50.498;12.138;2023-03-01T08:44:44;-0.90;99.90
14783;DHT22;7483;50.498;12.138;2023-03-01T08:47:12;-0.80;99.90
14783;DHT22;7483;50.498;12.138;2023-03-01T08:49:41;-0.70;99.90
14783;DHT22;7483;50.498;12.138;2023-03-01T08:52:09;-0.50;99.90
14783;DHT22;7483;50.498;12.138;2023-03-01T08:54:37;-0.50;99.90
14783;DHT22;7483;50.498;12.138;2023-03-01T08:57:05;-0.40;99.90
14783;DHT22;7483;50.498;12.138;2023-03-01T08:59:34;-0.40;99.90
14783;DHT22;7483;50.498;12.138;2023-03-01T09:02:04;-0.30;99.90
14783;DHT22;7483;50.498;12.138;2023-03-01T09:04:32;-0.20;99.90
14783;DHT22;7483;50.498;12.138;2023-03-01T09:07:00;-0.10;99.90
14783;DHT22;7483;50.498;12.138;2023-03-01T09:09:28;0.00;99.90
14783;DHT22;7483;50.498;12.138;2023-03-01T09:11:56;0.00;99.90
14783;DHT22;7483;50.498;12.138;2023-03-01T09:14:24;0.10;99.90
14783;DHT22;7483;50.498;12.138;2023-03-01T09:16:53;0.10;99.90
14783;DHT22;7483;50.498;12.138;2023-03-01T09:19:21;0.20;99.90
14783;DHT22;7483;50.498;12.138;2023-03-01T09:21:52;0.30;99.90
14783;DHT22;7483;50.498;12.138;2023-03-01T09:24:23;0.40;99.90
14783;DHT22;7483;50.498;12.138;2023-03-01T09:26:53;0.40;99.90
14783;DHT22;7483;50.498;12.138;2023-03-01T09:29:23;0.50;99.90
14783;DHT22;7483;50.498;12.138;2023-03-01T09:31:52;0.50;99.90
14783;DHT22;7483;50.498;12.138;2023-03-01T09:34:22;0.60;99.90
14783;DHT22;7483;50.498;12.138;2023-03-01T09:36:50;0.70;99.90
14783;DHT22;7483;50.498;12.138;2023-03-01T09:39:19;0.70;99.90
14783;DHT22;7483;50.498;12.138;2023-03-01T09:41:53;0.70;99.90
14783;DHT22;7483;50.498;12.138;2023-03-01T09:44:32;0.80;99.90
14783;DHT22;7483;50.498;12.138;2023-03-01T09:47:09;1.00;99.90
14783;DHT22;7483;50.498;12.138;2023-03-01T09:49:43;1.00;99.90
14783;DHT22;7483;50.498;12.138;2023-03-01T09:52:25;1.00;99.90
14783;DHT22;7483;50.498;12.138;2023-03-01T09:55:01;1.00;99.90
14783;DHT22;7483;50.498;12.138;2023-03-01T09:57:41;1.10;99.90
14783;DHT22;7483;50.498;12.138;2023-03-01T10:00:26;1.20;99.90
14783;DHT22;7483;50.498;12.138;2023-03-01T10:03:06;1.30;99.90
14783;DHT22;7483;50.498;12.138;2023-03-01T10:05:48;1.30;99.90
14783;DHT22;7483;50.498;12.138;2023-03-01T10:08:29;1.20;99.90
14783;DHT22;7483;50.498;12.138;2023-03-01T10:11:03;1.20;99.90
14783;DHT22;7483;50.498;12.138;2023-03-01T10:13:52;1.40;99.90
14783;DHT22;7483;50.498;12.138;2023-03-01T10:16:31;1.60;99.90
14783;DHT22;7483;50.498;12.138;2023-03-01T10:19:12;1.70;99.90
14783;DHT22;7483;50.498;12.138;2023-03-01T10:21:45;1.80;99.90
14783;DHT22;7483;50.498;12.138;2023-03-01T10:24:18;1.80;99.90
14783;DHT22;7483;50.498;12.138;2023-03-01T10:26:54;1.90;99.90
14783;DHT22;7483;50.498;12.138;2023-03-01T10:29:26;2.00;99.90
14783;DHT22;7483;50.498;12.138;2023-03-01T10:31:59;2.10;99.90
14783;DHT22;7483;50.498;12.138;2023-03-01T10:34:30;2.20;99.90
14783;DHT22;7483;50.498;12.138;2023-03-01T10:37:08;2.30;99.90
14783;DHT22;7483;50.498;12.138;2023-03-01T10:39:54;2.40;99.90
14783;DHT22;7483;50.498;12.138;2023-03-01T10:42:29;2.40;99.90
14783;DHT22;7483;50.498;12.138;2023-03-01T10:45:15;2.50;99.90
14783;DHT22;7483;50.498;12.138;2023-03-01T10:47:44;2.60;99.90
14783;DHT22;7483;50.498;12.138;2023-03-01T10:50:21;2.70;99.90
14783;DHT22;7483;50.498;12.138;2023-03-01T10:52:58;2.70;99.90
14783;DHT22;7483;50.498;12.138;2023-03-01T10:55:31;2.80;99.90
14783;DHT22;7483;50.498;12.138;2023-03-01T10:58:17;2.90;99.90
14783;DHT22;7483;50.498;12.138;2023-03-01T11:00:49;2.90;99.90
14783;DHT22;7483;50.498;12.138;2023-03-01T11:03:22;3.00;99.90
14783;DHT22;7483;50.498;12.138;2023-03-01T11:05:59;3.00;99.90
14783;DHT22;7483;50.498;12.138;2023-03-01T11:08:32;3.00;99.90
14783;DHT22;7483;50.498;12.138;2023-03-01T11:11:21;3.10;99.90
14783;DHT22;7483;50.498;12.138;2023-03-01T11:13:55;3.10;99.90
14783;DHT22;7483;50.498;12.138;2023-03-01T11:16:29;3.10;99.90
14783;DHT22;7483;50.498;12.138;2023-03-01T11:19:20;3.20;99.90
14783;DHT22;7483;50.498;12.138;2023-03-01T11:21:58;3.20;99.90
14783;DHT22;7483;50.498;12.138;2023-03-01T11:24:34;3.30;99.90
14783;DHT22;7483;50.498;12.138;2023-03-01T11:27:17;3.40;99.90
14783;DHT22;7483;50.498;12.138;2023-03-01T11:29:53;3.40;99.90
14783;DHT22;7483;50.498;12.138;2023-03-01T11:32:27;3.50;99.90
14783;DHT22;7483;50.498;12.138;2023-03-01T11:35:02;3.50;99.90
14783;DHT22;7483;50.498;12.138;2023-03-01T11:37:37;3.60;99.90
14783;DHT22;7483;50.498;12.138;2023-03-01T11:40:13;3.60;99.90
14783;DHT22;7483;50.498;12.138;2023-03-01T11:43:03;3.80;99.90
14783;DHT22;7483;50.498;12.138;2023-03-01T11:45:42;3.90;99.90
14783;DHT22;7483;50.498;12.138;2023-03-01T11:51:23;4.40;99.90
14783;DHT22;7483;50.498;12.138;2023-03-01T11:54:06;4.60;99.90
14783;DHT22;7483;50.498;12.138;2023-03-01T11:56:48;4.70;99.90
14783;DHT22;7483;50.498;12.138;2023-03-01T11:59:43;4.90;99.90
14783;DHT22;7483;50.498;12.138;2023-03-01T12:02:34;5.00;99.90
14783;DHT22;7483;50.498;12.138;2023-03-01T12:08:47;5.50;99.90
14783;DHT22;7483;50.498;12.138;2023-03-01T12:11:28;5.60;99.90
14783;DHT22;7483;50.498;12.138;2023-03-01T12:14:32;5.80;99.90
14783;DHT22;7483;50.498;12.138;2023-03-01T12:17:22;5.80;99.90
14783;DHT22;7483;50.498;12.138;2023-03-01T12:20:11;5.90;99.90
14783;DHT22;7483;50.498;12.138;2023-03-01T12:22:54;6.10;99.90
14783;DHT22;7483;50.498;12.138;2023-03-01T12:25:48;6.40;99.90
14783;DHT22;7483;50.498;12.138;2023-03-01T12:28:51;6.40;99.90
14783;DHT22;7483;50.498;12.138;2023-03-01T12:31:51;6.50;99.90
14783;DHT22;7483;50.498;12.138;2023-03-01T12:35:06;6.60;99.90
14783;DHT22;7483;50.498;12.138;2023-03-01T12:37:54;6.70;99.90
14783;DHT22;7483;50.498;12.138;2023-03-01T12:40:37;6.70;99.90
14783;DHT22;7483;50.498;12.138;2023-03-01T12:43:34;6.90;99.90
14783;DHT22;7483;50.498;12.138;2023-03-01T12:46:21;7.00;99.90
14783;DHT22;7483;50.498;12.138;2023-03-01T12:49:06;7.30;99.90
14783;DHT22;7483;50.498;12.138;2023-03-01T12:51:38;7.30;99.90
14783;DHT22;7483;50.498;12.138;2023-03-01T12:54:15;7.40;99.90
14783;DHT22;7483;50.498;12.138;2023-03-01T12:56:45;7.40;99.90
14783;DHT22;7483;50.498;12.138;2023-03-01T12:59:24;7.40;99.90
14783;DHT22;7483;50.498;12.138;2023-03-01T13:02:05;7.40;99.90
14783;DHT22;7483;50.498;12.138;2023-03-01T13:04:59;7.60;99.90
14783;DHT22;7483;50.498;12.138;2023-03-01T13:07:37;7.50;99.90
14783;DHT22;7483;50.498;12.138;2023-03-01T13:10:23;7.40;99.90
14783;DHT22;7483;50.498;12.138;2023-03-01T13:13:08;7.50;99.90
14783;DHT22;7483;50.498;12.138;2023-03-01T13:15:42;7.50;99.90
14783;DHT22;7483;50.498;12.138;2023-03-01T13:18:29;7.50;99.90
14783;DHT22;7483;50.498;12.138;2023-03-01T13:21:03;7.60;99.90
14783;DHT22;7483;50.498;12.138;2023-03-01T13:23:37;7.60;99.90
14783;DHT22;7483;50.498;12.138;2023-03-01T13:26:14;7.60;99.90
14783;DHT22;7483;50.498;12.138;2023-03-01T13:28:51;7.70;99.90
14783;DHT22;7483;50.498;12.138;2023-03-01T13:31:58;7.80;99.90
14783;DHT22;7483;50.498;12.138;2023-03-01T13:34:44;7.70;99.90
14783;DHT22;7483;50.498;12.138;2023-03-01T13:37:26;7.80;99.90
14783;DHT22;7483;50.498;12.138;2023-03-01T13:40:01;7.90;99.90
14783;DHT22;7483;50.498;12.138;2023-03-01T13:42:39;8.00;99.90
14783;DHT22;7483;50.498;12.138;2023-03-01T13:45:34;8.10;99.90
14783;DHT22;7483;50.498;12.138;2023-03-01T13:48:14;8.00;99.90
14783;DHT22;7483;50.498;12.138;2023-03-01T13:50:51;7.90;99.90
14783;DHT22;7483;50.498;12.138;2023-03-01T13:53:25;8.00;99.90
14783;DHT22;7483;50.498;12.138;2023-03-01T13:56:00;8.10;99.90
14783;DHT22;7483;50.498;12.138;2023-03-01T13:58:32;8.20;99.90
14783;DHT22;7483;50.498;12.138;2023-03-01T14:01:22;8.30;99.90
14783;DHT22;7483;50.498;12.138;2023-03-01T14:03:55;8.20;99.90
14783;DHT22;7483;50.498;12.138;2023-03-01T14:06:24;8.10;99.90
14783;DHT22;7483;50.498;12.138;2023-03-01T14:09:03;8.20;99.90
14783;DHT22;7483;50.498;12.138;2023-03-01T14:12:00;8.10;99.90
14783;DHT22;7483;50.498;12.138;2023-03-01T14:14:48;8.00;99.90
14783;DHT22;7483;50.498;12.138;2023-03-01T14:17:44;8.20;99.90
14783;DHT22;7483;50.498;12.138;2023-03-01T14:20:22;7.90;99.90
14783;DHT22;7483;50.498;12.138;2023-03-01T14:22:54;7.60;99.90
14783;DHT22;7483;50.498;12.138;2023-03-01T14:25:26;7.40;99.90
14783;DHT22;7483;50.498;12.138;2023-03-01T14:28:02;7.20;99.90
14783;DHT22;7483;50.498;12.138;2023-03-01T14:30:42;7.00;99.90
14783;DHT22;7483;50.498;12.138;2023-03-01T14:33:20;6.80;99.90
14783;DHT22;7483;50.498;12.138;2023-03-01T14:35:59;6.70;99.90
14783;DHT22;7483;50.498;12.138;2023-03-01T14:38:31;6.70;99.90
14783;DHT22;7483;50.498;12.138;2023-03-01T14:41:04;6.60;99.90
14783;DHT22;7483;50.498;12.138;2023-03-01T14:43:35;6.60;99.90
14783;DHT22;7483;50.498;12.138;2023-03-01T14:46:05;6.60;99.90
14783;DHT22;7483;50.498;12.138;2023-03-01T14:48:33;6.60;99.90
14783;DHT22;7483;50.498;12.138;2023-03-01T14:51:04;6.50;99.90
14783;DHT22;7483;50.498;12.138;2023-03-01T14:53:33;6.50;99.90
14783;DHT22;7483;50.498;12.138;2023-03-01T14:56:16;6.40;99.90
14783;DHT22;7483;50.498;12.138;2023-03-01T14:58:45;6.30;99.90
14783;DHT22;7483;50.498;12.138;2023-03-01T15:01:16;6.30;99.90
14783;DHT22;7483;50.498;12.138;2023-03-01T15:03:47;6.30;99.90
14783;DHT22;7483;50.498;12.138;2023-03-01T15:06:20;6.20;99.90
14783;DHT22;7483;50.498;12.138;2023-03-01T15:08:51;6.20;99.90
14783;DHT22;7483;50.498;12.138;2023-03-01T15:11:23;6.20;99.90
14783;DHT22;7483;50.498;12.138;2023-03-01T15:13:55;6.10;99.90
14783;DHT22;7483;50.498;12.138;2023-03-01T15:16:25;6.20;99.90
14783;DHT22;7483;50.498;12.138;2023-03-01T15:18:57;6.10;99.90
14783;DHT22;7483;50.498;12.138;2023-03-01T15:21:31;6.10;99.90
14783;DHT22;7483;50.498;12.138;2023-03-01T15:24:04;6.00;99.90
14783;DHT22;7483;50.498;12.138;2023-03-01T15:26:40;5.90;99.90
14783;DHT22;7483;50.498;12.138;2023-03-01T15:29:17;5.90;99.90
14783;DHT22;7483;50.498;12.138;2023-03-01T15:31:54;5.80;99.90
14783;DHT22;7483;50.498;12.138;2023-03-01T15:34:26;5.80;99.90
14783;DHT22;7483;50.498;12.138;2023-03-01T15:36:58;5.80;99.90
14783;DHT22;7483;50.498;12.138;2023-03-01T15:39:37;5.70;99.90
14783;DHT22;7483;50.498;12.138;2023-03-01T15:42:08;5.70;99.90
14783;DHT22;7483;50.498;12.138;2023-03-01T15:44:39;5.70;99.90
14783;DHT22;7483;50.498;12.138;2023-03-01T15:47:27;5.60;99.90
14783;DHT22;7483;50.498;12.138;2023-03-01T15:49:58;5.50;99.90
14783;DHT22;7483;50.498;12.138;2023-03-01T15:52:33;5.50;99.90
14783;DHT22;7483;50.498;12.138;2023-03-01T15:55:15;5.50;99.90
14783;DHT22;7483;50.498;12.138;2023-03-01T15:57:45;5.40;99.90
14783;DHT22;7483;50.498;12.138;2023-03-01T16:00:15;5.40;99.90
14783;DHT22;7483;50.498;12.138;2023-03-01T16:02:44;5.40;99.90
14783;DHT22;7483;50.498;12.138;2023-03-01T16:05:18;5.40;99.90
14783;DHT22;7483;50.498;12.138;2023-03-01T16:07:51;5.40;99.90
14783;DHT22;7483;50.498;12.138;2023-03-01T16:10:19;5.30;99.90
14783;DHT22;7483;50.498;12.138;2023-03-01T16:12:48;5.30;99.90
14783;DHT22;7483;50.498;12.138;2023-03-01T16:15:18;5.20;99.90
14783;DHT22;7483;50.498;12.138;2023-03-01T16:17:48;5.10;99.90
14783;DHT22;7483;50.498;12.138;2023-03-01T16:20:21;5.10;99.90
14783;DHT22;7483;50.498;12.138;2023-03-01T16:22:57;5.00;99.90